Time;durP1;ratioP1;P1;durP2;ratioP2;P2;SDS_P1;SDS_P2;PMS_P1;PMS_P2;Temp;Humidity;BMP_temperature;BMP_pressure;BME280_temperature;BME280_humidity;BME280_pressure;Samples;Min_cycle;Max_cycle;Signal;HPM_P1;HPM_P2
2020/12/23 00:02:10;;;;;;;0.52;0.43;;;21.60;45.50;;;;;;6259131;28;20032;-67
2020/12/23 00:05:14;;;;;;;0.88;0.40;;;21.60;45.70;;;;;;6259431;28;20088;-67
2020/12/23 00:08:14;;;;;;;0.68;0.50;;;21.60;45.80;;;;;;6244124;28;20025;-67
2020/12/23 00:11:16;;;;;;;1.20;0.70;;;21.60;45.50;;;;;;6260241;28;20514;-67
2020/12/23 00:14:16;;;;;;;1.42;0.50;;;21.60;45.50;;;;;;6267805;28;20021;-67
2020/12/23 00:17:18;;;;;;;0.82;0.50;;;21.60;45.60;;;;;;6269694;28;20265;-67
2020/12/23 00:20:19;;;;;;;1.00;0.50;;;21.60;45.40;;;;;;6261732;28;20060;-67
2020/12/23 00:23:19;;;;;;;1.10;0.50;;;21.60;46.30;;;;;;6244081;28;20400;-67
2020/12/23 00:26:20;;;;;;;1.58;0.52;;;21.60;45.70;;;;;;6243795;28;20084;-67
2020/12/23 00:29:20;;;;;;;1.23;0.50;;;21.60;45.50;;;;;;6244105;28;20029;-67
2020/12/23 00:32:20;;;;;;;0.57;0.50;;;21.60;45.70;;;;;;6243346;28;20052;-67
2020/12/23 00:35:21;;;;;;;2.50;0.73;;;21.60;45.70;;;;;;6243784;28;20022;-67
2020/12/23 00:38:21;;;;;;;0.90;0.50;;;21.60;45.70;;;;;;6243510;28;20029;-67
2020/12/23 00:41:22;;;;;;;0.75;0.43;;;21.50;45.60;;;;;;6254742;28;20021;-67
2020/12/23 00:44:24;;;;;;;3.22;0.70;;;21.50;45.40;;;;;;6267493;28;20059;-67
2020/12/23 00:47:25;;;;;;;1.10;0.50;;;21.60;45.80;;;;;;6260675;28;20026;-67
2020/12/23 00:50:25;;;;;;;1.10;0.45;;;21.50;45.50;;;;;;6242227;28;20088;-67
2020/12/23 00:53:26;;;;;;;0.60;0.40;;;21.50;45.80;;;;;;6245362;28;20407;-67
2020/12/23 00:56:26;;;;;;;1.63;0.65;;;21.50;46.40;;;;;;6247674;28;20848;-67
2020/12/23 00:59:27;;;;;;;0.80;0.43;;;21.50;45.80;;;;;;6247797;28;20449;-67
2020/12/23 01:02:27;;;;;;;1.15;0.63;;;21.50;45.90;;;;;;6264863;28;20096;-68
2020/12/23 01:05:28;;;;;;;0.90;0.57;;;21.50;46.10;;;;;;6270257;28;20029;-67
2020/12/23 01:08:28;;;;;;;0.57;0.57;;;21.50;45.70;;;;;;6247515;28;20488;-67
2020/12/23 01:11:29;;;;;;;1.35;0.50;;;21.50;45.60;;;;;;6247166;28;20061;-68
2020/12/23 01:14:29;;;;;;;0.80;0.50;;;21.50;45.50;;;;;;6247608;28;20037;-67
2020/12/23 01:17:29;;;;;;;0.52;0.43;;;21.50;45.80;;;;;;6247407;28;20064;-67
2020/12/23 01:20:30;;;;;;;1.75;0.60;;;21.50;45.40;;;;;;6247281;28;20032;-67
2020/12/23 01:23:30;;;;;;;0.75;0.52;;;21.50;45.90;;;;;;6270755;28;20110;-67
2020/12/23 01:26:31;;;;;;;2.15;0.60;;;21.50;45.80;;;;;;6271748;28;20021;-67
2020/12/23 01:29:31;;;;;;;2.10;0.70;;;21.50;45.90;;;;;;6259451;28;20554;-67
2020/12/23 01:32:32;;;;;;;0.45;0.38;;;21.40;45.80;;;;;;6260811;28;20666;-67
2020/12/23 01:35:33;;;;;;;0.90;0.43;;;21.40;45.80;;;;;;6271788;28;20397;-67
2020/12/23 01:38:33;;;;;;;0.77;0.40;;;21.40;46.00;;;;;;6250087;28;20036;-67
2020/12/23 01:41:34;;;;;;;0.75;0.45;;;21.40;46.00;;;;;;6246554;28;20092;-67
2020/12/23 01:44:37;;;;;;;1.00;0.60;;;21.40;46.00;;;;;;6246058;28;20452;-67
2020/12/23 01:47:43;;;;;;;1.15;0.40;;;21.40;45.90;;;;;;6246746;28;20228;-68
2020/12/23 01:50:44;;;;;;;0.80;0.50;;;21.40;46.10;;;;;;6246004;28;20060;-67
2020/12/23 01:53:44;;;;;;;0.85;0.50;;;21.40;45.80;;;;;;6246983;28;20029;-67
2020/12/23 01:56:45;;;;;;;1.13;0.60;;;21.40;45.90;;;;;;6246155;28;20436;-67
2020/12/23 01:59:46;;;;;;;0.85;0.40;;;21.40;45.80;;;;;;6246480;28;20585;-67
2020/12/23 02:02:48;;;;;;;2.15;0.73;;;21.40;45.90;;;;;;6260400;28;20114;-67
2020/12/23 02:05:50;;;;;;;1.50;0.50;;;21.40;45.80;;;;;;6270553;28;20029;-67
2020/12/23 02:08:52;;;;;;;1.63;0.40;;;21.40;45.80;;;;;;6271292;28;20061;-67
2020/12/23 02:11:53;;;;;;;1.33;0.60;;;21.40;45.80;;;;;;6270297;28;20021;-67
2020/12/23 02:14:54;;;;;;;1.00;0.50;;;21.40;45.90;;;;;;6270957;28;20029;-67
2020/12/23 02:17:55;;;;;;;1.10;0.70;;;21.40;45.80;;;;;;6270514;28;20068;-67
2020/12/23 02:20:56;;;;;;;0.70;0.40;;;21.40;46.00;;;;;;6269849;28;20021;-67
2020/12/23 02:23:56;;;;;;;0.65;0.40;;;21.30;45.80;;;;;;6252123;28;20429;-67
2020/12/23 02:26:56;;;;;;;1.42;0.55;;;21.40;45.80;;;;;;6245809;28;20388;-67
2020/12/23 02:29:58;;;;;;;0.80;0.55;;;21.40;45.80;;;;;;6261426;28;20423;-67
2020/12/23 02:32:59;;;;;;;0.70;0.40;;;21.40;45.90;;;;;;6270817;28;20035;-67
2020/12/23 02:35:59;;;;;;;0.57;0.40;;;21.40;45.80;;;;;;6270375;28;20111;-67
2020/12/23 02:38:59;;;;;;;0.65;0.45;;;21.40;45.90;;;;;;6269774;28;20033;-67
2020/12/23 02:42:02;;;;;;;0.60;0.50;;;21.40;45.80;;;;;;6270223;28;20048;-67
2020/12/23 02:45:02;;;;;;;1.63;0.60;;;21.40;45.80;;;;;;6247574;28;20071;-67
2020/12/23 02:48:03;;;;;;;0.32;0.28;;;21.40;45.80;;;;;;6245282;28;20068;-67
2020/12/23 02:51:03;;;;;;;0.77;0.40;;;21.30;45.70;;;;;;6245605;28;20052;-67
2020/12/23 02:54:04;;;;;;;1.13;0.60;;;21.30;45.80;;;;;;6258393;28;20020;-67
2020/12/23 02:57:05;;;;;;;0.82;0.50;;;21.30;45.70;;;;;;6269339;28;20048;-67
2020/12/23 03:00:05;;;;;;;0.68;0.47;;;21.30;45.70;;;;;;6269825;28;20085;-67
2020/12/23 03:03:06;;;;;;;0.60;0.45;;;21.30;45.90;;;;;;6265748;28;20025;-67
2020/12/23 03:06:06;;;;;;;0.93;0.52;;;21.30;46.50;;;;;;6245433;28;20029;-67
2020/12/23 03:09:09;;;;;;;1.33;0.60;;;21.30;45.80;;;;;;6244760;28;20032;-67
2020/12/23 03:12:09;;;;;;;0.68;0.45;;;21.30;45.80;;;;;;6244435;28;20029;-67
2020/12/23 03:15:10;;;;;;;0.50;0.35;;;21.30;45.80;;;;;;6263400;28;20466;-67
2020/12/23 03:18:10;;;;;;;1.25;0.50;;;21.30;45.90;;;;;;6268938;28;20031;-67
2020/12/23 03:21:10;;;;;;;1.63;0.55;;;21.30;45.90;;;;;;6269458;28;20033;-67
2020/12/23 03:24:11;;;;;;;0.95;0.55;;;21.30;45.80;;;;;;6257328;28;20022;-67
2020/12/23 03:27:11;;;;;;;0.32;0.30;;;21.30;45.70;;;;;;6243333;28;20033;-67
2020/12/23 03:30:12;;;;;;;0.77;0.50;;;21.30;45.80;;;;;;6262513;28;20079;-67
2020/12/23 03:33:12;;;;;;;2.38;0.77;;;21.30;45.90;;;;;;6267787;28;20044;-66
2020/12/23 03:36:13;;;;;;;1.33;0.50;;;21.30;45.90;;;;;;6245080;28;20033;-67
2020/12/23 03:39:13;;;;;;;0.82;0.60;;;21.30;46.00;;;;;;6243958;28;20060;-67
2020/12/23 03:42:14;;;;;;;0.82;0.45;;;21.30;45.90;;;;;;6244054;28;20515;-67
2020/12/23 03:45:14;;;;;;;1.83;0.63;;;21.30;45.90;;;;;;6259625;28;20593;-67
2020/12/23 03:48:15;;;;;;;1.38;0.60;;;21.30;46.00;;;;;;6267832;28;20496;-67
2020/12/23 03:51:16;;;;;;;1.25;0.50;;;21.30;46.00;;;;;;6267632;28;20503;-67
2020/12/23 03:54:16;;;;;;;0.70;0.50;;;21.30;46.00;;;;;;6262156;28;20421;-67
2020/12/23 03:57:16;;;;;;;0.77;0.50;;;21.20;46.00;;;;;;6244068;28;20520;-67
2020/12/23 04:00:17;;;;;;;1.20;0.52;;;21.30;46.00;;;;;;6243053;28;20492;-67
2020/12/23 04:03:17;;;;;;;1.02;0.68;;;21.20;45.90;;;;;;6242535;28;20396;-67
2020/12/23 04:06:18;;;;;;;1.20;0.52;;;21.20;46.00;;;;;;6264988;28;20029;-67
2020/12/23 04:09:19;;;;;;;0.68;0.50;;;21.20;46.00;;;;;;6268222;28;20059;-68
2020/12/23 04:12:19;;;;;;;1.13;0.47;;;21.20;46.00;;;;;;6268604;28;20033;-66
2020/12/23 04:15:20;;;;;;;0.85;0.60;;;21.20;46.00;;;;;;6262715;28;20124;-66
2020/12/23 04:18:21;;;;;;;0.85;0.40;;;21.20;46.00;;;;;;6268195;28;20052;-66
2020/12/23 04:21:21;;;;;;;0.82;0.50;;;21.20;46.00;;;;;;6246222;28;20507;-66
2020/12/23 04:24:22;;;;;;;0.95;0.45;;;21.20;46.00;;;;;;6246401;28;20481;-66
2020/12/23 04:27:23;;;;;;;0.70;0.57;;;21.20;46.00;;;;;;6267251;28;20036;-66
2020/12/23 04:30:23;;;;;;;1.67;0.55;;;21.20;46.00;;;;;;6248551;28;20384;-66
2020/12/23 04:33:23;;;;;;;0.65;0.40;;;21.20;46.10;;;;;;6241611;28;20018;-65
2020/12/23 04:36:24;;;;;;;0.95;0.50;;;21.20;46.10;;;;;;6261407;28;20348;-66
2020/12/23 04:39:24;;;;;;;0.93;0.52;;;21.20;46.10;;;;;;6265458;28;20025;-67
2020/12/23 04:42:25;;;;;;;0.70;0.60;;;21.20;46.10;;;;;;6243124;28;20105;-68
2020/12/23 04:45:25;;;;;;;0.73;0.50;;;21.20;46.20;;;;;;6243123;28;20108;-68
2020/12/23 04:48:29;;;;;;;1.60;0.70;;;21.20;46.20;;;;;;6243110;28;20073;-68
2020/12/23 04:51:36;;;;;;;1.45;0.52;;;21.20;46.10;;;;;;6242798;28;20420;-68
2020/12/23 04:54:36;;;;;;;1.45;0.73;;;21.20;46.20;;;;;;6243102;28;20518;-68
2020/12/23 04:57:39;;;;;;;1.20;0.43;;;21.20;46.10;;;;;;6265767;28;20025;-67
2020/12/23 05:00:40;;;;;;;0.60;0.50;;;21.20;46.10;;;;;;6266908;28;20028;-68
2020/12/23 05:03:41;;;;;;;1.85;0.55;;;21.20;46.10;;;;;;6267593;28;20017;-66
2020/12/23 05:06:41;;;;;;;1.30;0.47;;;21.20;46.30;;;;;;6253177;28;20108;-68
2020/12/23 05:09:41;;;;;;;0.80;0.52;;;21.20;46.20;;;;;;6242942;28;20481;-65
2020/12/23 05:12:43;;;;;;;0.77;0.43;;;21.20;46.20;;;;;;6242305;28;20585;-66
2020/12/23 05:15:43;;;;;;;0.55;0.30;;;21.20;46.20;;;;;;6247238;28;20120;-66
2020/12/23 05:18:44;;;;;;;1.20;0.50;;;21.20;46.20;;;;;;6267025;28;20494;-66
2020/12/23 05:21:45;;;;;;;0.93;0.60;;;21.20;46.30;;;;;;6254723;28;20465;-66
2020/12/23 05:24:53;;;;;;;0.45;0.30;;;21.20;46.20;;;;;;6242823;28;20021;-66
2020/12/23 05:27:53;;;;;;;0.75;0.50;;;21.20;46.20;;;;;;6263269;28;20428;-66
2020/12/23 05:30:54;;;;;;;1.38;0.63;;;21.20;46.20;;;;;;6243645;28;20036;-65
2020/12/23 05:33:57;;;;;;;0.80;0.50;;;21.20;46.20;;;;;;6242462;28;20021;-66
2020/12/23 05:37:01;;;;;;;1.75;0.50;;;21.20;46.10;;;;;;6255048;28;20029;-66
2020/12/23 05:40:02;;;;;;;0.88;0.32;;;21.20;46.10;;;;;;6269232;28;20017;-66
2020/12/23 05:43:02;;;;;;;0.75;0.55;;;21.20;46.20;;;;;;6251372;28;20074;-67
2020/12/23 05:46:06;;;;;;;1.05;0.50;;;21.20;46.20;;;;;;6249902;28;20055;-66
2020/12/23 05:49:10;;;;;;;2.25;0.70;;;21.20;46.10;;;;;;6270272;28;20029;-66
2020/12/23 05:52:11;;;;;;;0.90;0.40;;;21.20;46.10;;;;;;6271218;28;20028;-66
2020/12/23 05:55:16;;;;;;;2.03;0.60;;;21.20;46.10;;;;;;6271188;28;20519;-66
2020/12/23 05:58:27;;;;;;;1.52;0.60;;;21.20;46.20;;;;;;6251743;28;20060;-66
2020/12/23 06:01:33;;;;;;;0.50;0.40;;;21.20;46.20;;;;;;6262141;28;20026;-66
2020/12/23 06:04:36;;;;;;;0.47;0.40;;;21.20;46.20;;;;;;6244934;28;20036;-66
2020/12/23 06:07:41;;;;;;;1.35;0.70;;;21.20;46.30;;;;;;6246735;28;20158;-66
2020/12/23 06:10:48;;;;;;;0.60;0.40;;;21.20;46.10;;;;;;6246164;28;20073;-66
2020/12/23 06:14:13;;;;;;;0.98;0.47;;;21.30;46.00;;;;;;6245974;28;20021;-66
2020/12/23 06:17:18;;;;;;;0.40;0.30;;;21.40;46.00;;;;;;6254430;28;20021;-66
2020/12/23 06:20:19;;;;;;;2.38;0.50;;;21.40;45.80;;;;;;6269378;28;20112;-66
2020/12/23 06:23:27;;;;;;;0.50;0.40;;;21.50;45.70;;;;;;6270516;28;20025;-67
2020/12/23 06:26:34;;;;;;;1.50;0.50;;;21.50;45.60;;;;;;6270241;28;20078;-66
2020/12/23 06:29:37;;;;;;;0.88;0.45;;;21.60;45.60;;;;;;6257863;28;20036;-67
2020/12/23 06:32:38;;;;;;;0.50;0.40;;;21.60;45.60;;;;;;6245238;28;20040;-67
2020/12/23 06:35:38;;;;;;;1.13;0.40;;;21.60;45.60;;;;;;6246302;28;20488;-66
2020/12/23 06:38:39;;;;;;;1.33;0.35;;;21.60;45.60;;;;;;6265171;28;20041;-66
2020/12/23 06:41:39;;;;;;;0.45;0.38;;;21.70;45.60;;;;;;6276420;28;20052;-66
2020/12/23 06:44:42;;;;;;;0.55;0.40;;;21.70;45.60;;;;;;6279146;28;20060;-66
2020/12/23 06:47:43;;;;;;;10.77;0.70;;;21.70;45.60;;;;;;6257493;28;20079;-66
2020/12/23 06:50:44;;;;;;;3.28;0.50;;;21.70;45.90;;;;;;6243459;28;20029;-66
2020/12/23 06:53:45;;;;;;;4.85;1.10;;;21.70;45.60;;;;;;6244668;28;20018;-67
2020/12/23 06:56:46;;;;;;;1.25;0.50;;;21.80;45.50;;;;;;6244388;28;20072;-66
2020/12/23 06:59:47;;;;;;;3.70;0.50;;;21.80;45.50;;;;;;6244107;28;20427;-69
2020/12/23 07:02:52;;;;;;;2.13;0.70;;;21.90;45.50;;;;;;6248453;28;20024;-69
2020/12/23 07:05:52;;;;;;;2.70;0.60;;;21.90;45.50;;;;;;6253588;28;20034;-67
2020/12/23 07:08:54;;;;;;;1.17;0.60;;;22.00;45.60;;;;;;6246940;28;20514;-69
2020/12/23 07:11:59;;;;;;;4.03;0.50;;;22.00;45.60;;;;;;6246113;28;20037;-69
2020/12/23 07:15:10;;;;;;;3.97;0.52;;;22.00;45.50;;;;;;6260652;28;20029;-69
2020/12/23 07:18:12;;;;;;;5.97;0.60;;;22.00;45.60;;;;;;6266742;28;20045;-68
2020/12/23 07:21:13;;;;;;;2.63;0.60;;;22.10;45.60;;;;;;6264877;28;20455;-66
2020/12/23 07:24:15;;;;;;;1.42;0.50;;;22.20;45.60;;;;;;6243887;28;20036;-71
2020/12/23 07:27:17;;;;;;;3.60;0.60;;;22.10;45.60;;;;;;6245041;28;20092;-67
2020/12/23 07:30:17;;;;;;;4.03;0.60;;;22.20;45.80;;;;;;6244682;28;20092;-68
2020/12/23 07:33:18;;;;;;;1.60;0.70;;;22.30;45.60;;;;;;6245351;28;20025;-68
2020/12/23 07:36:19;;;;;;;4.15;0.90;;;22.20;45.60;;;;;;6244679;28;20040;-69
2020/12/23 07:39:19;;;;;;;3.17;0.70;;;22.20;45.60;;;;;;6250734;28;20452;-70
2020/12/23 07:42:20;;;;;;;1.58;0.45;;;22.20;45.90;;;;;;6258661;28;20045;-69
2020/12/23 07:45:22;;;;;;;0.90;0.50;;;22.20;45.80;;;;;;6247488;28;20033;-69
2020/12/23 07:48:25;;;;;;;3.60;0.50;;;22.20;45.80;;;;;;6243707;28;20029;-68
2020/12/23 07:51:27;;;;;;;2.65;0.60;;;22.20;45.80;;;;;;6244360;28;20485;-67
2020/12/23 07:54:27;;;;;;;1.75;0.55;;;22.20;45.90;;;;;;6243927;28;20030;-68
2020/12/23 07:57:29;;;;;;;2.85;0.60;;;22.20;45.90;;;;;;6244189;28;20083;-68
2020/12/23 08:00:29;;;;;;;1.55;0.50;;;22.20;45.90;;;;;;6243385;28;20093;-67
2020/12/23 08:03:31;;;;;;;0.65;0.40;;;22.10;45.80;;;;;;6243561;28;20018;-69
2020/12/23 08:06:31;;;;;;;0.75;0.50;;;22.20;45.90;;;;;;6249364;28;20025;-68
2020/12/23 08:09:32;;;;;;;4.30;0.63;;;22.20;45.80;;;;;;6243242;28;20033;-67
2020/12/23 08:12:33;;;;;;;2.08;0.40;;;22.20;46.40;;;;;;6243788;28;20515;-66
2020/12/23 08:15:33;;;;;;;1.23;0.55;;;22.20;45.70;;;;;;6243776;28;20045;-66
2020/12/23 08:18:35;;;;;;;1.83;0.60;;;22.20;45.60;;;;;;6243708;28;20104;-67
2020/12/23 08:21:35;;;;;;;1.58;0.80;;;22.30;45.70;;;;;;6264472;28;20025;-66
2020/12/23 08:24:35;;;;;;;9.80;2.97;;;22.30;45.60;;;;;;6264403;28;20036;-66
2020/12/23 08:27:38;;;;;;;9.68;2.20;;;22.30;45.90;;;;;;6243782;28;20029;-68
2020/12/23 08:30:40;;;;;;;4.07;1.33;;;22.30;45.90;;;;;;6264969;28;20056;-69
2020/12/23 08:33:43;;;;;;;3.85;1.75;;;22.30;45.60;;;;;;6267572;28;20454;-66
2020/12/23 08:36:51;;;;;;;6.45;2.70;;;22.30;45.60;;;;;;6243968;28;20034;-67
2020/12/23 08:39:53;;;;;;;23.27;6.90;;;22.30;45.60;;;;;;6241464;28;20034;-67
2020/12/23 08:42:59;;;;;;;10.60;4.60;;;22.30;45.90;;;;;;6242734;28;20021;-67
2020/12/23 08:46:00;;;;;;;26.90;7.40;;;22.30;45.70;;;;;;6254553;28;20025;-66
2020/12/23 08:49:01;;;;;;;20.17;6.20;;;22.20;45.30;;;;;;6251447;28;20091;-68
2020/12/23 08:52:01;;;;;;;15.43;5.30;;;22.30;45.40;;;;;;6243316;28;20061;-68
2020/12/23 08:55:13;;;;;;;16.20;5.85;;;22.30;45.40;;;;;;6244014;28;20022;-66
2020/12/23 08:58:14;;;;;;;20.67;7.90;;;22.30;45.30;;;;;;6263793;28;20021;-66
2020/12/23 09:01:21;;;;;;;45.28;15.52;;;22.30;45.40;;;;;;6257411;28;20524;-67
2020/12/23 09:04:29;;;;;;;53.05;17.40;;;22.30;45.60;;;;;;6243713;28;20036;-67
2020/12/23 09:07:30;;;;;;;48.70;16.33;;;22.30;45.60;;;;;;6243365;28;20025;-67
2020/12/23 09:10:31;;;;;;;32.08;13.75;;;22.30;45.70;;;;;;6241724;28;20485;-65
2020/12/23 09:13:32;;;;;;;47.42;17.92;;;22.30;46.00;;;;;;6243809;28;20096;-66
2020/12/23 09:16:33;;;;;;;44.25;17.27;;;22.30;45.80;;;;;;6258563;28;20029;-67
2020/12/23 09:19:52;;;;;;;48.67;16.83;;;22.30;45.90;;;;;;6271323;28;20033;-68
2020/12/23 09:22:53;;;;;;;34.42;14.57;;;22.40;45.90;;;;;;6272698;28;20031;-66
2020/12/23 09:25:54;;;;;;;29.23;12.73;;;22.50;45.90;;;;;;6268795;28;20029;-65
2020/12/23 09:28:55;;;;;;;31.33;12.60;;;22.50;45.40;;;;;;6253360;28;20049;-65
2020/12/23 09:31:55;;;;;;;36.25;13.35;;;22.50;45.30;;;;;;6260091;28;20041;-65
2020/12/23 09:35:15;;;;;;;40.85;14.93;;;22.60;45.30;;;;;;6249664;28;20084;-63
2020/12/23 09:38:24;;;;;;;46.75;14.90;;;22.50;45.30;;;;;;6249466;28;20398;-67
2020/12/23 09:41:25;;;;;;;42.63;15.23;;;22.50;45.60;;;;;;6250776;28;20025;-69
2020/12/23 09:44:27;;;;;;;75.80;16.20;;;22.50;45.80;;;;;;6252472;28;20037;-74
2020/12/23 09:47:28;;;;;;;40.88;15.95;;;22.50;45.80;;;;;;6256573;28;20056;-70
2020/12/23 09:50:28;;;;;;;41.42;15.15;;;22.60;45.60;;;;;;6223115;28;20041;-67
2020/12/23 09:53:29;;;;;;;43.40;15.60;;;22.60;45.80;;;;;;6239341;28;20435;-68
2020/12/23 09:56:29;;;;;;;35.20;13.90;;;22.60;45.60;;;;;;6247791;28;20029;-67
2020/12/23 09:59:30;;;;;;;36.92;14.05;;;22.70;45.20;;;;;;6247094;28;20029;-68
2020/12/23 10:02:30;;;;;;;42.95;14.43;;;22.70;45.70;;;;;;6248054;28;20026;-64
2020/12/23 10:05:31;;;;;;;36.80;12.98;;;22.70;45.60;;;;;;6268222;28;20068;-65
2020/12/23 10:08:31;;;;;;;41.03;13.73;;;22.90;45.90;;;;;;6260480;28;20029;-67
2020/12/23 10:11:33;;;;;;;40.53;12.95;;;23.00;45.80;;;;;;6245885;28;20728;-67
2020/12/23 10:14:34;;;;;;;36.65;11.63;;;22.90;45.70;;;;;;6247640;28;20032;-68
2020/12/23 10:17:35;;;;;;;40.80;11.70;;;22.90;46.20;;;;;;6247014;28;20034;-69
2020/12/23 10:20:36;;;;;;;27.95;10.27;;;22.90;46.30;;;;;;6248067;28;20048;-68
2020/12/23 10:23:36;;;;;;;28.33;11.23;;;23.10;45.60;;;;;;6247012;28;20057;-68
2020/12/23 10:26:37;;;;;;;36.45;9.15;;;23.10;45.60;;;;;;6246829;28;20084;-69
2020/12/23 10:29:37;;;;;;;26.67;7.80;;;23.10;45.60;;;;;;6259507;28;20021;-68
2020/12/23 10:32:38;;;;;;;18.77;5.63;;;22.90;43.20;;;;;;6263340;28;20076;-69
2020/12/23 10:35:39;;;;;;;19.45;4.97;;;22.60;41.30;;;;;;6262336;28;20380;-68
2020/12/23 10:38:41;;;;;;;17.17;5.07;;;22.30;40.30;;;;;;6271433;28;20029;-69
2020/12/23 10:41:42;;;;;;;17.42;4.68;;;22.30;39.40;;;;;;6265682;28;20037;-69
2020/12/23 10:44:43;;;;;;;17.02;4.70;;;22.20;38.00;;;;;;6255180;28;20036;-69
2020/12/23 10:47:44;;;;;;;21.23;5.00;;;22.10;39.10;;;;;;6264422;28;20029;-69
2020/12/23 10:50:45;;;;;;;22.02;6.20;;;22.20;38.00;;;;;;6245751;28;20029;-70
2020/12/23 10:53:45;;;;;;;16.15;5.80;;;22.00;38.00;;;;;;6246337;28;20029;-68
2020/12/23 10:56:46;;;;;;;16.40;5.18;;;21.90;39.80;;;;;;6244406;28;20052;-68
2020/12/23 10:59:47;;;;;;;17.50;4.88;;;22.20;40.20;;;;;;6245762;28;20021;-69
2020/12/23 11:02:48;;;;;;;12.50;4.57;;;22.30;40.50;;;;;;6245245;28;20029;-65
2020/12/23 11:05:49;;;;;;;13.60;3.92;;;22.40;40.70;;;;;;6245738;28;20052;-65
2020/12/23 11:08:49;;;;;;;18.83;4.40;;;22.60;40.90;;;;;;6245590;28;20032;-68
2020/12/23 11:11:54;;;;;;;16.17;4.75;;;22.70;40.80;;;;;;6245279;28;20500;-66
2020/12/23 11:14:54;;;;;;;14.23;3.93;;;22.80;41.00;;;;;;6267002;28;20029;-68
2020/12/23 11:17:55;;;;;;;11.10;4.13;;;22.70;41.10;;;;;;6271379;28;20472;-66
2020/12/23 11:20:55;;;;;;;14.23;4.22;;;22.60;41.40;;;;;;6270144;28;20040;-68
2020/12/23 11:23:55;;;;;;;15.60;4.03;;;22.70;41.90;;;;;;6262483;28;20025;-68
2020/12/23 11:26:56;;;;;;;11.18;4.13;;;22.80;42.00;;;;;;6263640;28;20034;-66
2020/12/23 11:29:56;;;;;;;8.80;3.85;;;22.90;42.10;;;;;;6253750;28;20038;-68
2020/12/23 11:32:57;;;;;;;18.70;4.05;;;22.90;42.10;;;;;;6244756;28;20025;-66
2020/12/23 11:35:57;;;;;;;7.97;3.50;;;22.90;42.10;;;;;;6244544;28;20167;-66
2020/12/23 11:38:59;;;;;;;14.93;3.75;;;23.00;42.40;;;;;;6244645;28;20150;-69
2020/12/23 11:42:02;;;;;;;9.90;3.90;;;22.90;42.60;;;;;;6249319;28;20083;-68
2020/12/23 11:45:03;;;;;;;12.57;3.47;;;22.90;42.60;;;;;;6246020;28;20098;-66
2020/12/23 11:48:03;;;;;;;15.88;4.00;;;22.80;43.10;;;;;;6245604;28;20033;-66
2020/12/23 11:51:06;;;;;;;7.95;3.13;;;22.80;43.20;;;;;;6244675;28;20033;-65
2020/12/23 11:54:07;;;;;;;15.60;3.53;;;22.90;43.30;;;;;;6254721;28;20029;-66
2020/12/23 11:57:08;;;;;;;9.43;3.05;;;23.00;43.20;;;;;;6265823;28;20526;-66
2020/12/23 12:00:08;;;;;;;7.47;3.42;;;23.00;43.60;;;;;;6249643;28;20022;-66
2020/12/23 12:03:09;;;;;;;9.30;2.67;;;22.90;43.60;;;;;;6251579;28;20022;-65
2020/12/23 12:06:10;;;;;;;10.43;3.53;;;22.90;43.90;;;;;;6258740;28;20026;-65
2020/12/23 12:09:11;;;;;;;8.40;2.75;;;22.90;43.70;;;;;;6245127;28;20030;-67
2020/12/23 12:12:11;;;;;;;8.18;2.83;;;22.80;43.90;;;;;;6247458;28;20040;-66
2020/12/23 12:15:12;;;;;;;18.73;3.15;;;22.80;43.90;;;;;;6257228;28;20022;-66
2020/12/23 12:18:13;;;;;;;14.02;2.67;;;22.80;43.90;;;;;;6247302;28;20025;-68
2020/12/23 12:21:13;;;;;;;21.75;4.20;;;22.90;44.00;;;;;;6243325;28;20538;-67
2020/12/23 12:24:14;;;;;;;12.05;3.83;;;22.60;43.20;;;;;;6243473;28;20508;-70
2020/12/23 12:27:15;;;;;;;14.27;3.10;;;22.50;44.50;;;;;;6248386;28;20052;-66
2020/12/23 12:30:15;;;;;;;13.18;3.10;;;22.60;44.20;;;;;;6250163;28;20048;-65
2020/12/23 12:33:16;;;;;;;8.43;2.97;;;22.70;43.80;;;;;;6258278;28;20400;-66
2020/12/23 12:36:16;;;;;;;12.10;2.90;;;22.80;43.70;;;;;;6248015;28;20025;-65
2020/12/23 12:39:17;;;;;;;5.88;2.70;;;22.80;43.80;;;;;;6248056;28;20025;-66
2020/12/23 12:42:18;;;;;;;6.38;2.58;;;22.70;43.90;;;;;;6248580;28;20029;-66
2020/12/23 12:45:18;;;;;;;9.65;2.60;;;22.80;44.10;;;;;;6244887;28;20341;-67
2020/12/23 12:48:19;;;;;;;5.32;2.50;;;22.80;44.60;;;;;;6247467;28;20404;-65
2020/12/23 12:51:27;;;;;;;11.20;3.03;;;22.90;44.70;;;;;;6251184;28;20503;-68
2020/12/23 12:54:27;;;;;;;16.40;2.55;;;22.80;44.80;;;;;;6257931;28;20025;-66
2020/12/23 12:57:28;;;;;;;9.73;2.75;;;22.90;44.90;;;;;;6257326;28;20029;-66
2020/12/23 13:00:30;;;;;;;7.93;2.70;;;22.60;43.10;;;;;;6260595;28;20466;-67
2020/12/23 13:03:30;;;;;;;14.85;3.17;;;22.60;43.30;;;;;;6272278;28;20528;-66
2020/12/23 13:06:31;;;;;;;7.22;2.53;;;22.60;43.20;;;;;;6271987;28;20095;-66
2020/12/23 13:09:33;;;;;;;9.02;3.22;;;22.60;43.30;;;;;;6278610;28;20033;-66
2020/12/23 13:12:33;;;;;;;8.43;2.35;;;22.60;43.40;;;;;;6279145;28;20021;-66
2020/12/23 13:15:34;;;;;;;8.88;2.42;;;22.60;43.30;;;;;;6259712;28;20503;-66
2020/12/23 13:18:34;;;;;;;5.10;2.25;;;22.60;43.40;;;;;;6252605;28;20037;-65
2020/12/23 13:21:35;;;;;;;7.80;2.92;;;22.60;43.40;;;;;;6264124;28;20052;-65
2020/12/23 13:24:35;;;;;;;9.25;2.42;;;22.60;43.60;;;;;;6268651;28;20056;-64
2020/12/23 13:27:36;;;;;;;4.07;2.03;;;22.50;43.60;;;;;;6275540;28;20448;-65
2020/12/23 13:30:36;;;;;;;4.75;1.95;;;22.50;43.70;;;;;;6269331;28;20021;-64
2020/12/23 13:33:37;;;;;;;8.52;2.45;;;22.60;43.40;;;;;;6250540;28;20037;-65
2020/12/23 13:36:38;;;;;;;5.38;2.03;;;22.50;43.60;;;;;;6273645;28;20029;-66
2020/12/23 13:39:38;;;;;;;4.15;1.75;;;22.50;43.70;;;;;;6273349;28;20025;-66
2020/12/23 13:42:41;;;;;;;5.63;1.80;;;22.50;43.70;;;;;;6250620;28;20049;-65
2020/12/23 13:45:41;;;;;;;3.80;1.80;;;22.60;43.60;;;;;;6256322;28;20025;-67
2020/12/23 13:48:42;;;;;;;8.63;1.90;;;22.60;43.60;;;;;;6269450;28;20052;-66
2020/12/23 13:51:48;;;;;;;7.47;2.20;;;22.70;43.50;;;;;;6264877;28;20052;-66
2020/12/23 13:54:48;;;;;;;5.13;2.22;;;22.70;43.50;;;;;;6272714;28;20025;-65
2020/12/23 13:57:49;;;;;;;6.82;2.30;;;22.70;43.50;;;;;;6260566;28;20017;-67
2020/12/23 14:00:49;;;;;;;2.85;1.48;;;22.70;43.60;;;;;;6249173;28;20748;-67
2020/12/23 14:03:50;;;;;;;13.30;2.15;;;22.80;43.60;;;;;;6250084;28;20064;-67
2020/12/23 14:06:50;;;;;;;4.10;1.80;;;22.80;43.70;;;;;;6248684;28;20033;-65
2020/12/23 14:09:51;;;;;;;3.83;1.60;;;22.70;43.70;;;;;;6257315;28;20037;-67
2020/12/23 14:12:52;;;;;;;4.18;1.75;;;22.80;43.70;;;;;;6258823;28;20040;-66
2020/12/23 14:15:52;;;;;;;2.55;1.40;;;22.80;43.80;;;;;;6248963;28;20025;-65
2020/12/23 14:18:53;;;;;;;4.43;1.80;;;22.70;43.80;;;;;;6250591;28;20029;-66
2020/12/23 14:21:54;;;;;;;1.98;1.30;;;22.80;43.60;;;;;;6257224;28;20044;-67
2020/12/23 14:24:54;;;;;;;2.60;1.50;;;22.80;43.60;;;;;;6249331;28;20029;-68
2020/12/23 14:27:55;;;;;;;3.25;1.70;;;22.90;43.60;;;;;;6250697;28;20041;-67
2020/12/23 14:30:56;;;;;;;3.13;1.50;;;22.80;43.60;;;;;;6264604;28;20021;-67
2020/12/23 14:33:56;;;;;;;3.00;1.60;;;22.70;43.90;;;;;;6268749;28;20037;-66
2020/12/23 14:37:00;;;;;;;2.85;1.20;;;22.80;43.90;;;;;;6249320;28;20033;-66
2020/12/23 14:40:00;;;;;;;2.60;1.25;;;22.70;44.00;;;;;;6247200;28;20024;-65
2020/12/23 14:43:01;;;;;;;2.35;1.30;;;22.70;44.60;;;;;;6256961;28;20099;-66
2020/12/23 14:46:02;;;;;;;2.78;1.35;;;22.70;44.10;;;;;;6251888;28;20021;-67
2020/12/23 14:49:02;;;;;;;3.42;1.45;;;22.80;44.10;;;;;;6251233;28;20069;-67
2020/12/23 14:52:04;;;;;;;5.75;1.70;;;22.90;43.90;;;;;;6258960;28;20029;-67
2020/12/23 14:55:05;;;;;;;3.55;1.60;;;22.80;43.80;;;;;;6251260;28;20267;-67
2020/12/23 14:58:06;;;;;;;10.35;1.42;;;22.80;44.00;;;;;;6264435;28;20454;-66
2020/12/23 15:01:08;;;;;;;3.80;1.42;;;22.80;44.00;;;;;;6247452;28;20064;-65
2020/12/23 15:04:09;;;;;;;2.83;1.42;;;22.80;44.00;;;;;;6249048;28;20025;-66
2020/12/23 15:07:09;;;;;;;2.45;1.40;;;22.90;43.90;;;;;;6258734;28;20032;-67
2020/12/23 15:10:10;;;;;;;3.38;1.70;;;22.80;44.00;;;;;;6266311;28;20522;-67
2020/12/23 15:13:11;;;;;;;3.70;1.75;;;22.80;44.00;;;;;;6253741;28;20033;-68
2020/12/23 15:16:12;;;;;;;7.75;1.80;;;22.90;44.00;;;;;;6256006;28;20575;-68
2020/12/23 15:19:13;;;;;;;4.07;1.45;;;22.90;44.40;;;;;;6246839;28;20022;-65
2020/12/23 15:22:13;;;;;;;5.32;1.40;;;22.90;44.40;;;;;;6255530;28;20025;-68
2020/12/23 15:25:14;;;;;;;2.65;1.27;;;22.90;44.40;;;;;;6244405;28;20090;-67
2020/12/23 15:28:16;;;;;;;4.18;1.50;;;22.90;44.50;;;;;;6262279;28;20033;-66
2020/12/23 15:31:17;;;;;;;16.08;3.10;;;22.80;44.10;;;;;;6246109;28;20025;-67
2020/12/23 15:34:18;;;;;;;5.22;2.17;;;22.60;43.40;;;;;;6251030;28;20025;-70
2020/12/23 15:37:19;;;;;;;7.50;3.47;;;22.60;43.90;;;;;;6258014;28;20036;-71
2020/12/23 15:40:19;;;;;;;13.45;4.65;;;22.70;43.80;;;;;;6225846;28;20041;-68